SCSZ weather

Puerto Sanchéz Airport
Puerto Sanchez, Aysén Region, Chile

Public forecast

Using degrees Celsius for public forecast. Weather courtesy of forecast.io.

METAR (pilot weather report)

Closest report is Chile Chico Airport, 38.4 nm (71.0 km) E. Retrieved 2019/02/19 17:00 UTC (34 minutes ago):

SCCC 191700Z 28024G35KT 9999 BKN036 19/01 Q0997

TAF (pilot weather forecast)

Closest forecast is Balmaceda Airport, 56.3 nm (104.2 km) NE. Retrieved 2019/02/19 12:00 UTC (6 hours ago):

TAF SCBA 190917Z 1912/2012 31015KT CAVOK TX14/1919Z TN05/2010Z BECMG 1912/1914 32020G30KT BECMG 1915/1917 32030G40KT SCT040 BECMG 1923/2001 32020KT CAVOK BECMG 2004/2006 31010KT